Time;durP1;ratioP1;P1;durP2;ratioP2;P2;SDS_P1;SDS_P2;PMS_P1;PMS_P2;Temp;Humidity;BMP_temperature;BMP_pressure;BME280_temperature;BME280_humidity;BME280_pressure;Samples;Min_cycle;Max_cycle;Signal;HPM_P1;HPM_P2
2022/12/14 00:01:28;;;;;;;32.77;14.30;;;;;;;-6.28;100.00;100137.22;6274864;22;20023;-76
2022/12/14 00:03:56;;;;;;;22.10;11.33;;;;;;;-6.27;100.00;100140.63;6276701;22;20426;-77
2022/12/14 00:06:29;;;;;;;22.83;12.17;;;;;;;-6.27;100.00;100138.97;6274865;22;20019;-79
2022/12/14 00:09:04;;;;;;;27.55;13.55;;;;;;;-6.24;100.00;100138.25;6249500;22;20023;-79
2022/12/14 00:11:33;;;;;;;22.50;11.93;;;;;;;-6.23;100.00;100132.34;6273676;22;20117;-77
2022/12/14 00:14:03;;;;;;;24.10;12.80;;;;;;;-6.22;100.00;100131.56;6249336;22;20019;-77
2022/12/14 00:16:33;;;;;;;25.97;13.07;;;;;;;-6.20;100.00;100130.84;6248141;22;20138;-76
2022/12/14 00:19:01;;;;;;;23.83;11.50;;;;;;;-6.19;100.00;100118.94;6273030;22;20019;-77
2022/12/14 00:21:28;;;;;;;21.87;11.47;;;;;;;-6.18;100.00;100118.16;6271951;22;20038;-77
2022/12/14 00:23:58;;;;;;;25.70;12.83;;;;;;;-6.18;100.00;100108.88;6274698;22;20027;-77
2022/12/14 00:26:31;;;;;;;18.40;11.37;;;;;;;-6.17;100.00;100110.59;6274256;22;20510;-78
2022/12/14 00:29:01;;;;;;;23.23;12.07;;;;;;;-6.16;100.00;100109.78;6275084;22;20376;-77
2022/12/14 00:31:28;;;;;;;24.47;12.87;;;;;;;-6.16;100.00;100109.78;6272530;22;20026;-79
2022/12/14 00:33:54;;;;;;;27.10;14.63;;;;;;;-6.15;100.00;100101.38;6273644;22;20031;-77
2022/12/14 00:36:21;;;;;;;28.27;13.90;;;;;;;-6.12;100.00;100102.31;6273137;22;20290;-77
2022/12/14 00:38:48;;;;;;;18.00;12.00;;;;;;;-6.12;100.00;100104.88;6273635;22;20080;-77
2022/12/14 00:41:14;;;;;;;22.30;12.80;;;;;;;-6.11;100.00;100106.59;6272754;22;20015;-78
2022/12/14 00:43:41;;;;;;;17.87;12.33;;;;;;;-6.11;100.00;100104.94;6273149;22;20795;-77
2022/12/14 00:46:09;;;;;;;19.20;11.10;;;;;;;-6.08;100.00;100105.09;6273738;22;20023;-77
2022/12/14 00:48:36;;;;;;;21.58;11.85;;;;;;;-6.07;100.00;100098.34;6300084;22;20011;-78
2022/12/14 00:51:03;;;;;;;19.40;12.03;;;;;;;-6.06;100.00;100102.59;6247117;22;20023;-77
2022/12/14 00:53:30;;;;;;;22.37;13.57;;;;;;;-6.07;100.00;100101.75;6272415;22;20082;-79
2022/12/14 00:55:57;;;;;;;18.87;11.20;;;;;;;-6.06;100.00;100098.41;6245494;22;20023;-79
2022/12/14 00:58:26;;;;;;;18.50;10.77;;;;;;;-6.05;100.00;100101.81;6270296;22;20471;-79
2022/12/14 01:01:11;;;;;;;19.47;10.93;;;;;;;-6.06;100.00;100095.84;6270884;22;20015;-79
2022/12/14 01:03:37;;;;;;;20.73;11.03;;;;;;;-6.05;100.00;100097.59;6274117;22;20023;-79
2022/12/14 01:06:04;;;;;;;19.30;10.17;;;;;;;-6.05;100.00;100094.16;6301242;22;20465;-77
2022/12/14 01:08:34;;;;;;;20.97;10.40;;;;;;;-6.04;100.00;100090.81;6300552;22;20025;-77
2022/12/14 01:11:07;;;;;;;16.63;9.70;;;;;;;-6.03;100.00;100092.56;6275483;22;20047;-77
2022/12/14 01:13:36;;;;;;;15.77;8.30;;;;;;;-6.02;100.00;100094.34;6248839;22;20045;-77
2022/12/14 01:16:09;;;;;;;19.73;11.03;;;;;;;-6.02;100.00;100094.34;6274261;22;20343;-78
2022/12/14 01:18:37;;;;;;;22.37;12.40;;;;;;;-5.99;100.00;100095.34;6273219;22;20029;-77
2022/12/14 01:21:17;;;;;;;20.83;9.67;;;;;;;-5.95;100.00;100098.03;6273671;22;20015;-77
2022/12/14 01:23:47;;;;;;;20.23;10.40;;;;;;;-5.95;100.00;100095.47;6243473;22;20548;-77
2022/12/14 01:26:17;;;;;;;18.63;11.30;;;;;;;-5.95;100.00;100087.81;6243716;22;20024;-77
2022/12/14 01:28:45;;;;;;;19.33;10.80;;;;;;;-5.94;100.00;100092.09;6247954;22;20016;-78
2022/12/14 01:31:21;;;;;;;18.57;10.40;;;;;;;-5.96;100.00;100089.47;6249001;22;20076;-78
2022/12/14 01:33:48;;;;;;;16.23;9.43;;;;;;;-5.97;100.00;100090.31;6247983;22;20119;-77
2022/12/14 01:36:19;;;;;;;17.60;9.83;;;;;;;-6.00;100.00;100087.63;6269546;22;20016;-77
2022/12/14 01:38:47;;;;;;;20.60;11.53;;;;;;;-6.02;100.00;100085.00;6243677;22;20047;-79
2022/12/14 01:41:33;;;;;;;17.48;10.02;;;;;;;-6.04;100.00;100076.41;6218205;22;20343;-79
2022/12/14 01:44:07;;;;;;;15.67;9.17;;;;;;;-6.03;100.00;100077.28;6217977;22;20038;-77
2022/12/14 01:47:09;;;;;;;18.15;9.75;;;;;;;-6.06;100.00;100075.47;6242595;22;20106;-79
2022/12/14 01:49:45;;;;;;;19.17;9.17;;;;;;;-6.08;100.00;100069.41;6243066;22;20443;-79
2022/12/14 01:52:32;;;;;;;17.73;9.87;;;;;;;-6.11;100.00;100069.28;6243177;22;20646;-79
2022/12/14 01:55:10;;;;;;;14.80;8.50;;;;;;;-6.13;100.00;100065.75;6242712;22;20088;-79
2022/12/14 01:57:47;;;;;;;16.60;10.10;;;;;;;-6.13;100.00;100060.66;6243469;22;20020;-79
2022/12/14 02:00:15;;;;;;;19.13;11.20;;;;;;;-6.11;100.00;100060.72;6263977;22;20111;-80
2022/12/14 02:02:53;;;;;;;16.17;9.43;;;;;;;-6.12;100.00;100056.47;6242001;22;20026;-77
2022/12/14 02:05:22;;;;;;;17.60;9.23;;;;;;;-6.11;100.00;100045.44;6243414;22;20016;-77
2022/12/14 02:07:52;;;;;;;17.73;9.67;;;;;;;-6.10;100.00;100045.53;6243443;22;20585;-79
2022/12/14 02:10:19;;;;;;;15.37;8.93;;;;;;;-6.12;100.00;100044.59;6270694;22;20019;-77
2022/12/14 02:12:56;;;;;;;14.50;9.43;;;;;;;-6.11;100.00;100037.81;6243954;22;20087;-77
2022/12/14 02:15:23;;;;;;;14.07;8.03;;;;;;;-6.13;100.00;100040.28;6244584;22;20657;-77
2022/12/14 02:17:49;;;;;;;20.07;10.20;;;;;;;-6.17;100.00;100036.72;6243890;22;20012;-79
2022/12/14 02:20:17;;;;;;;17.13;9.70;;;;;;;-6.15;100.00;100039.34;6243182;22;20030;-79
2022/12/14 02:23:20;;;;;;;17.53;10.40;;;;;;;-6.15;100.00;100041.91;6218164;22;20019;-79
2022/12/14 02:26:13;;;;;;;18.93;9.87;;;;;;;-6.14;100.00;100041.06;6272183;22;20016;-76
2022/12/14 02:29:20;;;;;;;18.57;9.60;;;;;;;-6.16;100.00;100035.06;6270521;22;20046;-77
2022/12/14 02:32:52;;;;;;;19.77;9.37;;;;;;;-6.15;100.00;100030.03;6269404;22;20022;-77
2022/12/14 02:35:38;;;;;;;19.77;10.63;;;;;;;-6.15;100.00;100031.72;6175018;23;20024;-77
2022/12/14 02:38:35;;;;;;;18.90;9.33;;;;;;;-6.17;100.00;100025.66;6172312;23;20468;-77
2022/12/14 02:41:37;;;;;;;18.23;9.80;;;;;;;-6.17;100.00;100023.09;6216184;22;20024;-76
2022/12/14 02:44:28;;;;;;;17.00;9.47;;;;;;;-6.21;100.00;100014.44;6268607;22;20024;-78
2022/12/14 02:47:11;;;;;;;18.67;8.80;;;;;;;-6.28;100.00;100012.41;6241643;22;20050;-78
2022/12/14 02:50:03;;;;;;;16.40;8.95;;;;;;;-6.34;100.00;100000.22;6244681;22;20020;-77
2022/12/14 02:52:35;;;;;;;20.17;10.07;;;;;;;-6.37;100.00;100002.66;6245402;22;20016;-77
2022/12/14 02:55:09;;;;;;;16.47;10.37;;;;;;;-6.42;100.00;100008.31;6272248;22;20073;-77
2022/12/14 02:58:00;;;;;;;16.27;9.17;;;;;;;-6.47;100.00;100000.44;6272456;22;20086;-78
2022/12/14 03:00:31;;;;;;;19.90;10.77;;;;;;;-6.55;100.00;99997.53;6244682;22;20019;-77
2022/12/14 03:02:58;;;;;;;16.73;10.00;;;;;;;-6.58;100.00;99994.84;6245623;22;20023;-77
2022/12/14 03:05:25;;;;;;;18.57;9.80;;;;;;;-6.62;100.00;99981.88;6246189;22;20304;-77
2022/12/14 03:08:00;;;;;;;16.30;9.27;;;;;;;-6.67;100.00;99986.75;6245311;22;20477;-78
2022/12/14 03:10:38;;;;;;;15.97;9.50;;;;;;;-6.68;100.00;99988.41;6243778;22;20023;-77
2022/12/14 03:13:33;;;;;;;16.43;8.67;;;;;;;-6.72;100.00;99985.66;6244323;22;20016;-79
2022/12/14 03:16:41;;;;;;;17.53;9.50;;;;;;;-6.75;100.00;99990.56;6244372;22;20011;-77
2022/12/14 03:19:23;;;;;;;19.53;9.50;;;;;;;-6.78;100.00;99985.34;6152693;23;20021;-77
2022/12/14 03:21:55;;;;;;;16.67;9.77;;;;;;;-6.82;100.00;99975.00;6241227;22;20016;-77
2022/12/14 03:24:30;;;;;;;18.00;10.13;;;;;;;-6.83;100.00;99978.34;6244294;22;20125;-78
2022/12/14 03:27:03;;;;;;;17.70;8.57;;;;;;;-6.84;100.00;99971.50;6245528;22;20012;-78
2022/12/14 03:29:37;;;;;;;19.90;11.37;;;;;;;-6.85;100.00;99973.97;6271288;22;20015;-77
2022/12/14 03:32:08;;;;;;;21.73;13.75;;;;;;;-6.89;100.00;99967.00;6244635;22;20020;-77
2022/12/14 03:34:42;;;;;;;18.23;9.47;;;;;;;-6.90;100.00;99961.00;6245000;22;20016;-78
2022/12/14 03:37:15;;;;;;;25.80;12.25;;;;;;;-6.89;100.00;99957.69;6244485;22;20173;-77
2022/12/14 03:39:44;;;;;;;25.35;12.48;;;;;;;-6.92;100.00;99954.09;6240565;22;20082;-78
2022/12/14 03:42:30;;;;;;;19.90;11.17;;;;;;;-6.96;100.00;99949.66;6242893;22;20061;-77
2022/12/14 03:45:20;;;;;;;20.37;11.00;;;;;;;-7.01;100.00;99944.38;6244580;22;20016;-77
2022/12/14 03:48:08;;;;;;;20.97;11.50;;;;;;;-7.03;100.00;99938.31;6244964;22;20065;-78
2022/12/14 03:50:44;;;;;;;19.07;9.37;;;;;;;-7.08;100.00;99938.06;6243546;22;20019;-77
2022/12/14 03:53:15;;;;;;;18.30;11.07;;;;;;;-7.11;100.00;99934.53;6243707;22;20027;-78
2022/12/14 03:56:18;;;;;;;17.07;9.83;;;;;;;-7.17;100.00;99942.69;6271224;22;20016;-77
2022/12/14 03:59:07;;;;;;;26.50;11.60;;;;;;;-7.19;100.00;99937.53;6271966;22;20016;-77
2022/12/14 04:01:42;;;;;;;15.93;8.93;;;;;;;-7.20;100.00;99934.91;6245499;22;20431;-78
2022/12/14 04:04:18;;;;;;;16.00;9.20;;;;;;;-7.23;100.00;99933.09;6265735;22;20034;-77
2022/12/14 04:07:00;;;;;;;18.60;8.50;;;;;;;-7.26;100.00;99920.22;6255502;22;20019;-77
2022/12/14 04:09:45;;;;;;;19.33;9.17;;;;;;;-7.27;100.00;99917.59;6245852;22;20019;-76
2022/12/14 04:21:03;;;;;;;16.10;9.63;;;;;;;-7.39;100.00;99905.13;6249142;22;20008;-77
2022/12/14 04:26:32;;;;;;;22.83;9.32;;;;;;;-7.40;100.00;99913.56;6249328;22;20011;-77
2022/12/14 04:32:09;;;;;;;16.33;8.77;;;;;;;-7.44;100.00;99915.09;6249201;22;20019;-77
2022/12/14 04:34:38;;;;;;;15.43;9.20;;;;;;;-7.43;100.00;99903.22;6244982;22;20019;-79
2022/12/14 04:37:12;;;;;;;15.77;8.83;;;;;;;-7.46;100.00;99903.94;6245238;22;20118;-76
2022/12/14 04:39:54;;;;;;;18.27;9.10;;;;;;;-7.48;100.00;99903.00;6244279;22;20676;-77
2022/12/14 04:42:29;;;;;;;13.27;8.97;;;;;;;-7.53;100.00;99895.13;6244755;22;20020;-77
2022/12/14 04:45:04;;;;;;;18.20;8.93;;;;;;;-7.55;100.00;99900.94;6244914;22;20020;-77
2022/12/14 04:47:38;;;;;;;16.13;9.43;;;;;;;-7.54;100.00;99892.53;6248189;22;20095;-76
2022/12/14 04:50:47;;;;;;;;;;;;;;;-7.53;100.00;99899.38;6246573;22;20012;-77
2022/12/14 04:53:22;;;;;;;19.37;8.97;;;;;;;-7.54;100.00;99895.94;6093175;23;19963;-77
2022/12/14 04:56:07;;;;;;;18.07;8.10;;;;;;;-7.56;100.00;99887.38;6093534;23;20018;-77
2022/12/14 04:58:35;;;;;;;17.37;8.53;;;;;;;-7.58;100.00;99886.41;6197719;22;20098;-77
2022/12/14 05:01:59;;;;;;;19.90;9.30;;;;;;;-7.58;100.00;99875.38;6243473;22;20028;-77
2022/12/14 05:05:05;;;;;;;17.60;7.90;;;;;;;-7.61;100.00;99870.13;6174789;23;20413;-77
2022/12/14 05:07:46;;;;;;;14.07;8.37;;;;;;;-7.61;100.00;99870.13;6173705;23;20025;-78
2022/12/14 05:10:31;;;;;;;13.77;8.57;;;;;;;-7.63;100.00;99867.50;6231591;22;20033;-77
2022/12/14 05:13:05;;;;;;;15.63;9.83;;;;;;;-7.64;100.00;99865.75;6241692;22;20026;-77
2022/12/14 05:15:57;;;;;;;16.17;8.53;;;;;;;-7.64;100.00;99868.28;6243343;22;20031;-77
2022/12/14 05:18:24;;;;;;;19.47;10.07;;;;;;;-7.65;100.00;99872.50;6235636;22;20450;-77
2022/12/14 05:20:51;;;;;;;17.33;9.17;;;;;;;-7.63;100.00;99864.09;6240723;22;20019;-78
2022/12/14 05:23:20;;;;;;;10.97;7.17;;;;;;;-7.66;100.00;99865.69;6242911;22;20809;-78
2022/12/14 05:25:54;;;;;;;18.83;9.63;;;;;;;-7.68;100.00;99857.13;6242409;22;20011;-78
2022/12/14 05:28:24;;;;;;;17.95;9.70;;;;;;;-7.68;100.00;99858.75;6244372;22;20020;-77
2022/12/14 05:30:51;;;;;;;12.67;8.43;;;;;;;-7.67;100.00;99863.91;6241472;22;20011;-77
2022/12/14 05:33:29;;;;;;;20.03;9.93;;;;;;;-7.68;100.00;99862.19;6241901;22;20150;-77
2022/12/14 05:35:56;;;;;;;15.87;7.23;;;;;;;-7.69;100.00;99859.56;6220032;22;20049;-77
2022/12/14 05:38:26;;;;;;;16.30;9.13;;;;;;;-7.67;100.00;99857.97;6244242;22;20034;-77
2022/12/14 05:40:53;;;;;;;15.20;8.10;;;;;;;-7.66;100.00;99845.34;6244213;22;20046;-77
2022/12/14 05:43:23;;;;;;;12.83;8.17;;;;;;;-7.63;100.00;99838.69;6245701;22;20019;-79
2022/12/14 05:46:09;;;;;;;;;;;;;;;;;;;;;
2022/12/14 05:48:46;;;;;;;15.67;8.40;;;;;;;-7.63;100.00;99842.09;6244743;22;20011;-77
2022/12/14 05:51:21;;;;;;;18.60;9.53;;;;;;;-7.63;100.00;99842.09;6245425;22;20016;-77
2022/12/14 05:53:48;;;;;;;18.10;9.93;;;;;;;-7.63;100.00;99833.59;6245225;22;20403;-79
2022/12/14 05:56:26;;;;;;;15.97;9.53;;;;;;;-7.65;100.00;99831.00;6244993;22;20016;-79
2022/12/14 05:58:53;;;;;;;17.67;8.87;;;;;;;-7.66;100.00;99826.69;6247083;22;20062;-77
2022/12/14 06:04:04;;;;;;;19.77;9.57;;;;;;;-7.67;100.00;99819.88;6224080;22;20107;-79
2022/12/14 06:06:35;;;;;;;14.80;7.93;;;;;;;-7.66;100.00;99814.00;6244707;22;20022;-78
2022/12/14 06:09:15;;;;;;;18.93;9.97;;;;;;;-7.62;100.00;99803.19;6219968;22;20027;-79
2022/12/14 06:11:48;;;;;;;15.03;8.13;;;;;;;-7.58;100.00;99794.91;6217181;22;20023;-79
2022/12/14 06:14:23;;;;;;;15.27;9.63;;;;;;;-7.58;100.00;99792.34;6243586;22;20323;-79
2022/12/14 06:17:15;;;;;;;16.00;8.73;;;;;;;-7.58;100.00;99794.03;6246462;22;20016;-79
2022/12/14 06:19:42;;;;;;;13.63;7.13;;;;;;;-7.61;100.00;99798.94;6245747;22;20766;-79
2022/12/14 06:22:09;;;;;;;16.90;8.67;;;;;;;-7.63;100.00;99791.25;6218844;22;20030;-79
2022/12/14 06:24:35;;;;;;;20.63;10.17;;;;;;;-7.60;100.00;99788.88;6248565;22;20015;-79
2022/12/14 06:27:02;;;;;;;16.23;8.43;;;;;;;-7.62;100.00;99792.16;6245893;22;20095;-79
2022/12/14 06:29:29;;;;;;;16.97;9.43;;;;;;;-7.64;100.00;99794.59;6244926;22;20026;-79
2022/12/14 06:31:56;;;;;;;18.07;7.87;;;;;;;-7.66;100.00;99791.13;6247770;22;20015;-80
2022/12/14 06:34:37;;;;;;;16.93;8.43;;;;;;;-7.72;100.00;99776.41;6249564;22;20024;-79
2022/12/14 06:37:13;;;;;;;17.30;8.50;;;;;;;-7.74;100.00;99783.09;6259498;22;20090;-79
2022/12/14 06:39:40;;;;;;;16.77;8.93;;;;;;;-7.74;100.00;99784.75;6272795;22;20067;-79
2022/12/14 06:42:07;;;;;;;18.30;8.83;;;;;;;-7.76;100.00;99781.28;6236665;22;20019;-79
2022/12/14 06:44:36;;;;;;;15.27;9.43;;;;;;;-7.79;100.00;99773.50;6249284;22;20080;-80
2022/12/14 06:47:03;;;;;;;15.57;8.93;;;;;;;-7.82;100.00;99771.69;6221964;22;20031;-80
2022/12/14 06:49:30;;;;;;;17.60;8.67;;;;;;;-7.81;100.00;99766.69;6222250;22;20050;-80
2022/12/14 06:51:56;;;;;;;16.90;8.50;;;;;;;-7.81;100.00;99769.22;6248381;22;20090;-80
2022/12/14 06:54:23;;;;;;;15.80;8.10;;;;;;;-7.85;100.00;99761.34;6248404;22;20019;-80
2022/12/14 06:56:50;;;;;;;18.33;10.00;;;;;;;-7.86;100.00;99772.31;6247947;22;20015;-79
2022/12/14 06:59:17;;;;;;;17.70;8.67;;;;;;;-7.90;100.00;99762.78;6246922;22;20339;-80
2022/12/14 07:02:05;;;;;;;25.43;8.03;;;;;;;-7.91;100.00;99759.41;6246479;22;20419;-79
2022/12/14 07:04:32;;;;;;;16.40;8.47;;;;;;;-7.89;100.00;99765.41;6247864;22;20132;-79
2022/12/14 07:06:58;;;;;;;18.63;9.50;;;;;;;-7.90;100.00;99765.34;6246636;22;20024;-79
2022/12/14 07:09:26;;;;;;;13.50;8.57;;;;;;;-7.90;100.00;99758.59;6220117;22;20054;-79
2022/12/14 07:11:53;;;;;;;14.27;8.63;;;;;;;-7.94;100.00;99760.91;6246662;22;20687;-79
2022/12/14 07:14:20;;;;;;;16.73;9.17;;;;;;;-7.95;100.00;99756.59;6245617;22;20016;-79
2022/12/14 07:16:47;;;;;;;20.20;9.90;;;;;;;-7.92;100.00;99757.63;6220406;22;20047;-79
2022/12/14 07:19:13;;;;;;;16.07;8.60;;;;;;;-7.89;100.00;99757.78;6221180;22;20054;-79
2022/12/14 07:21:40;;;;;;;12.67;7.50;;;;;;;-7.87;100.00;99742.66;6247155;22;20442;-79
2022/12/14 07:24:07;;;;;;;17.10;8.43;;;;;;;-7.82;100.00;99748.81;6245918;22;20119;-79
2022/12/14 07:26:35;;;;;;;18.70;8.87;;;;;;;-7.77;100.00;99747.34;6244955;22;20054;-80
2022/12/14 07:29:01;;;;;;;13.27;8.03;;;;;;;-7.74;100.00;99746.63;6245347;22;20312;-79
2022/12/14 07:31:29;;;;;;;17.83;9.63;;;;;;;-7.74;100.00;99745.00;6245843;22;20054;-79
2022/12/14 07:33:58;;;;;;;18.97;9.70;;;;;;;-7.73;100.00;99738.22;6246634;22;20020;-79
2022/12/14 07:36:27;;;;;;;16.10;10.17;;;;;;;-7.74;100.00;99741.56;6230902;22;20020;-79
2022/12/14 07:38:55;;;;;;;19.70;11.83;;;;;;;-7.71;100.00;99737.50;6252572;22;20423;-79
2022/12/14 07:41:30;;;;;;;26.73;14.03;;;;;;;-7.71;100.00;99739.19;6275599;22;20114;-79
2022/12/14 07:44:00;;;;;;;20.97;12.67;;;;;;;-7.68;100.00;99736.78;6246455;22;20024;-80
2022/12/14 07:46:30;;;;;;;20.87;11.60;;;;;;;-7.66;100.00;99745.38;6218947;22;20123;-79
2022/12/14 07:48:59;;;;;;;19.20;10.37;;;;;;;-7.65;100.00;99747.13;6243568;22;20016;-79
2022/12/14 07:51:33;;;;;;;16.87;8.70;;;;;;;-7.63;100.00;99742.97;6218684;22;20016;-79
2022/12/14 07:54:00;;;;;;;;;;;;;;;-7.60;100.00;99729.53;6245702;22;20030;-79
2022/12/14 07:56:34;;;;;;;24.43;10.83;;;;;;;-7.58;100.00;99738.97;6244064;22;19942;-79
2022/12/14 07:59:05;;;;;;;15.23;8.77;;;;;;;-7.56;100.00;99727.25;6242598;22;20347;-79
2022/12/14 08:01:35;;;;;;;15.90;8.07;;;;;;;-7.53;100.00;99729.91;6244583;22;20094;-79
2022/12/14 08:04:15;;;;;;;14.73;7.63;;;;;;;-7.49;100.00;99726.72;6244485;22;20085;-78
2022/12/14 08:06:43;;;;;;;12.20;7.37;;;;;;;-7.44;100.00;99726.06;6217577;22;20102;-78
2022/12/14 08:09:11;;;;;;;15.13;9.03;;;;;;;-7.41;100.00;99727.09;6214934;22;20019;-79
2022/12/14 08:11:39;;;;;;;13.40;7.73;;;;;;;-7.36;100.00;99729.88;6243862;22;20433;-79
2022/12/14 08:14:12;;;;;;;16.67;8.40;;;;;;;-7.32;100.00;99729.22;6244621;22;20042;-78
2022/12/14 08:16:39;;;;;;;15.57;8.80;;;;;;;-7.27;100.00;99739.59;6244458;22;20086;-79
2022/12/14 08:19:06;;;;;;;19.00;9.53;;;;;;;-7.28;100.00;99731.09;6243525;22;20030;-79
2022/12/14 08:21:32;;;;;;;17.50;9.07;;;;;;;-7.28;100.00;99731.09;6243730;22;20016;-78
2022/12/14 08:24:01;;;;;;;16.50;8.37;;;;;;;-7.25;100.00;99730.38;6243849;22;20024;-79
2022/12/14 08:26:28;;;;;;;17.40;8.83;;;;;;;-7.21;100.00;99727.16;6245425;22;20019;-79
2022/12/14 08:28:56;;;;;;;16.33;7.37;;;;;;;-7.15;100.00;99730.00;6217406;22;20038;-79
2022/12/14 08:31:26;;;;;;;15.47;8.17;;;;;;;-7.10;100.00;99735.28;6242452;22;20062;-79
2022/12/14 08:33:53;;;;;;;16.83;8.73;;;;;;;-7.06;100.00;99735.53;6244776;22;20073;-79
2022/12/14 08:36:29;;;;;;;17.10;8.87;;;;;;;-7.01;100.00;99738.28;6245311;22;20020;-79
2022/12/14 08:38:59;;;;;;;18.80;7.60;;;;;;;-6.95;100.00;99730.06;6272484;22;20338;-79
2022/12/14 08:41:27;;;;;;;16.63;9.70;;;;;;;-6.92;100.00;99732.72;6245207;22;20024;-79
2022/12/14 08:44:00;;;;;;;21.63;9.70;;;;;;;-6.90;100.00;99729.47;6244298;22;20701;-79
2022/12/14 08:46:31;;;;;;;17.80;10.57;;;;;;;-6.88;100.00;99735.50;6244359;22;20015;-79
2022/12/14 08:48:58;;;;;;;16.37;10.33;;;;;;;-6.84;99.95;99739.94;6218823;22;20719;-79
2022/12/14 08:51:29;;;;;;;18.83;9.50;;;;;;;-6.83;99.38;99731.50;6244545;22;20111;-79
2022/12/14 08:53:57;;;;;;;20.50;10.50;;;;;;;-6.82;99.65;99727.28;6246003;22;20020;-78
2022/12/14 08:56:26;;;;;;;16.87;8.47;;;;;;;-6.78;99.32;99723.19;6280855;22;20046;-79
2022/12/14 08:58:54;;;;;;;16.97;7.67;;;;;;;-6.74;99.75;99722.53;6293170;22;20011;-78
2022/12/14 09:01:31;;;;;;;16.67;8.73;;;;;;;-6.72;99.46;99721.81;6270607;22;20027;-79
2022/12/14 09:04:03;;;;;;;15.70;8.67;;;;;;;-6.67;99.23;99725.44;6252906;22;20094;-79
2022/12/14 09:06:30;;;;;;;20.97;10.23;;;;;;;-6.66;99.07;99733.94;6245640;22;20486;-78
2022/12/14 09:08:58;;;;;;;25.57;9.53;;;;;;;-6.68;98.73;99723.69;6244104;22;20505;-79
2022/12/14 09:11:24;;;;;;;16.13;8.87;;;;;;;-6.69;98.92;99718.53;6243604;22;20020;-79
2022/12/14 09:13:55;;;;;;;13.63;8.17;;;;;;;-6.72;98.88;99718.41;6244214;22;20030;-79
2022/12/14 09:16:26;;;;;;;11.43;7.33;;;;;;;-6.75;99.06;99715.69;6218353;22;20012;-79
2022/12/14 09:18:53;;;;;;;11.53;7.00;;;;;;;-6.77;99.36;99709.69;6242596;22;20070;-79
2022/12/14 09:21:20;;;;;;;14.60;8.07;;;;;;;-6.74;99.37;99710.69;6241129;22;20081;-79
2022/12/14 09:23:47;;;;;;;14.87;8.23;;;;;;;-6.75;99.75;99721.66;6243424;22;20016;-77
2022/12/14 09:26:22;;;;;;;12.27;7.50;;;;;;;-6.75;99.49;99724.22;6243166;22;20031;-77
2022/12/14 09:28:53;;;;;;;12.83;8.00;;;;;;;-6.75;99.65;99721.66;6242962;22;20011;-79
2022/12/14 09:31:23;;;;;;;15.73;7.20;;;;;;;-6.76;99.85;99719.91;6219938;22;20034;-79
2022/12/14 09:33:50;;;;;;;15.60;8.33;;;;;;;-6.76;99.65;99719.91;6245109;22;20059;-77
2022/12/14 09:36:23;;;;;;;14.53;8.20;;;;;;;-6.78;100.00;99716.41;6218756;22;20030;-78
2022/12/14 09:38:51;;;;;;;20.23;8.65;;;;;;;-6.79;99.35;99717.25;6244114;22;20367;-77
2022/12/14 09:41:35;;;;;;;13.50;7.40;;;;;;;-6.83;99.19;99705.16;6245378;22;20016;-77
2022/12/14 09:44:24;;;;;;;14.43;8.20;;;;;;;-6.89;99.45;99712.53;6253324;22;20050;-77
2022/12/14 09:47:01;;;;;;;11.30;6.93;;;;;;;-6.95;99.55;99714.78;6279818;22;20027;-78
2022/12/14 09:49:34;;;;;;;15.10;8.83;;;;;;;-7.00;100.00;99707.81;6275586;22;20141;-79
2022/12/14 09:52:05;;;;;;;18.58;9.70;;;;;;;-6.98;100.00;99706.22;6253310;22;20047;-79
2022/12/14 09:54:37;;;;;;;13.20;8.07;;;;;;;-6.99;100.00;99717.22;6256191;22;20012;-78
2022/12/14 09:57:37;;;;;;;21.60;10.70;;;;;;;-6.98;100.00;99706.22;6257625;22;20027;-77
2022/12/14 10:00:17;;;;;;;13.47;8.00;;;;;;;-6.99;100.00;99706.16;6259544;22;20020;-78
2022/12/14 10:03:29;;;;;;;18.73;8.77;;;;;;;-6.98;100.00;99711.28;6234424;22;20020;-78
2022/12/14 10:06:31;;;;;;;14.43;8.10;;;;;;;-6.97;100.00;99709.66;6282482;22;20025;-78
2022/12/14 10:09:13;;;;;;;18.67;7.07;;;;;;;-6.96;100.00;99697.78;6268880;22;20054;-79
2022/12/14 10:12:19;;;;;;;25.67;9.33;;;;;;;-6.96;100.00;99700.31;6271287;22;20012;-77
2022/12/14 10:15:08;;;;;;;19.23;8.77;;;;;;;-6.95;100.00;99690.22;6268394;22;20012;-76
2022/12/14 10:18:16;;;;;;;16.87;9.50;;;;;;;-6.97;100.00;99689.28;6268846;22;20117;-78
2022/12/14 10:20:51;;;;;;;18.83;8.73;;;;;;;-6.92;100.00;99695.47;6240857;22;20791;-77
2022/12/14 10:23:22;;;;;;;15.87;7.93;;;;;;;-6.89;100.00;99697.28;6241785;22;20460;-76
2022/12/14 10:25:54;;;;;;;12.83;8.20;;;;;;;-6.86;100.00;99693.16;6218013;22;20020;-79
2022/12/14 10:28:38;;;;;;;15.50;8.23;;;;;;;-6.82;99.43;99689.09;6247791;22;20019;-78
2022/12/14 10:31:12;;;;;;;17.50;9.00;;;;;;;-6.74;99.38;99680.16;6243160;22;20012;-79
2022/12/14 10:33:45;;;;;;;14.63;8.93;;;;;;;-6.70;98.88;99679.50;6218126;22;20030;-78
2022/12/14 10:36:42;;;;;;;17.40;8.05;;;;;;;-6.67;97.96;99676.19;6218492;22;20687;-78
2022/12/14 10:39:51;;;;;;;12.30;7.20;;;;;;;-6.64;98.08;99676.31;6247418;22;20027;-79
2022/12/14 10:42:33;;;;;;;10.40;7.03;;;;;;;-6.57;97.97;99677.47;6245491;22;20015;-79
2022/12/14 10:45:08;;;;;;;13.53;7.27;;;;;;;-6.48;97.47;99677.88;6269756;22;20039;-79
2022/12/14 10:47:40;;;;;;;12.80;6.40;;;;;;;-6.44;97.08;99676.31;6244652;22;20015;-79
2022/12/14 10:51:02;;;;;;;13.90;8.07;;;;;;;-6.33;97.67;99672.59;6246595;22;20012;-79
2022/12/14 10:53:51;;;;;;;14.97;7.00;;;;;;;-6.19;94.90;99676.59;6245335;22;20016;-79
2022/12/14 10:56:33;;;;;;;9.27;6.50;;;;;;;-6.12;94.29;99664.13;6244391;22;20016;-77
2022/12/14 10:59:19;;;;;;;14.43;7.10;;;;;;;-6.05;93.82;99669.53;6245040;22;20015;-77
2022/12/14 11:01:49;;;;;;;13.40;6.83;;;;;;;-6.02;93.23;99669.66;6271451;22;20026;-77
2022/12/14 11:04:32;;;;;;;12.00;7.17;;;;;;;-5.98;92.86;99658.72;6244038;22;20506;-77
2022/12/14 11:07:03;;;;;;;14.32;6.63;;;;;;;-5.96;92.98;99655.38;6271898;22;20023;-79
2022/12/14 11:09:30;;;;;;;13.17;6.17;;;;;;;-5.94;92.75;99657.19;6219386;22;20043;-79
2022/12/14 11:12:06;;;;;;;11.73;6.93;;;;;;;-5.93;93.37;99650.41;6244392;22;20023;-79
2022/12/14 11:14:35;;;;;;;14.67;6.90;;;;;;;-5.89;93.47;99654.81;6217641;22;20478;-79
2022/12/14 11:17:02;;;;;;;14.70;7.60;;;;;;;-5.87;92.74;99648.97;6221135;22;20016;-79
2022/12/14 11:19:29;;;;;;;14.77;7.17;;;;;;;-5.78;92.93;99648.47;6246651;22;20461;-79
2022/12/14 11:22:16;;;;;;;10.43;6.97;;;;;;;-5.73;92.07;99647.00;6245567;22;20094;-79
2022/12/14 11:24:48;;;;;;;10.73;7.17;;;;;;;-5.71;92.14;99642.84;6246650;22;20019;-79
2022/12/14 11:27:20;;;;;;;10.90;5.97;;;;;;;-5.63;91.95;99644.81;6244715;22;20019;-80
2022/12/14 11:29:49;;;;;;;13.20;7.13;;;;;;;-5.58;91.21;99639.09;6244472;22;20094;-77
2022/12/14 11:32:25;;;;;;;12.87;6.77;;;;;;;-5.53;90.96;99634.16;6218643;22;20023;-79
2022/12/14 11:34:57;;;;;;;9.23;6.40;;;;;;;-5.45;90.23;99637.00;6245314;22;20020;-79
2022/12/14 11:37:30;;;;;;;12.57;6.97;;;;;;;-5.40;89.66;99638.06;6244812;22;20860;-78
2022/12/14 11:40:01;;;;;;;15.90;7.90;;;;;;;-5.36;89.43;99638.25;6243642;22;20020;-77
2022/12/14 11:42:28;;;;;;;12.10;6.57;;;;;;;-5.32;88.74;99641.78;6218783;22;20047;-78
2022/12/14 11:44:55;;;;;;;23.23;11.00;;;;;;;-5.27;88.65;99626.66;6244206;22;20436;-79
2022/12/14 11:47:25;;;;;;;17.67;7.40;;;;;;;-5.18;88.37;99635.50;6243925;22;20023;-79
2022/12/14 11:49:55;;;;;;;10.32;6.25;;;;;;;-5.05;86.59;99634.28;6243471;22;20691;-77
2022/12/14 11:52:37;;;;;;;12.63;5.43;;;;;;;-4.99;86.48;99628.56;6243836;22;20019;-77
2022/12/14 11:55:18;;;;;;;7.15;5.78;;;;;;;-4.94;86.29;99624.50;6271564;22;20461;-77
2022/12/14 11:57:55;;;;;;;9.88;4.85;;;;;;;-4.89;85.86;99622.09;6219261;22;20016;-77
2022/12/14 12:00:31;;;;;;;10.95;4.82;;;;;;;-4.85;86.54;99629.06;6218442;22;20102;-78
2022/12/14 12:03:22;;;;;;;7.43;5.00;;;;;;;-4.80;85.89;99624.97;6243803;22;20422;-78
2022/12/14 12:05:50;;;;;;;7.57;5.10;;;;;;;-4.77;85.69;99620.00;6244570;22;20094;-77
2022/12/14 12:08:29;;;;;;;11.38;5.78;;;;;;;-4.71;85.21;99617.66;6218187;22;20019;-77
2022/12/14 12:11:03;;;;;;;9.77;4.65;;;;;;;-4.69;85.72;99616.03;6243502;22;20019;-77